Newton Junction, New Hampshire
Current Conditions -  °F | °C
As of 3:54 AM on Friday 24 Oct 2014 (Local Time) from KLWM Reporting Station
Light Rain Light Rain  
Wind Chill: 45°   Ceiling: 1300
Heat Index: 49°   Visibility: 10mi
Dew Point: 47°   Wind: 8mph
Humidity: 93%   Direction: 340°NNW
Pressure: 29.69"   Gusts: NA
Location:  42.87°N, 71.07°W
Report Text: KLWM 240754Z 34007KT 10SM -RA OVC013 09/08 A2969 RMK AO2 SLP055 P0002 T00940083
Loading
Personal Weather Stations






























Interactive Weather Map
Tropical Storm Tracking
New forecast layout! Learn more

10-Day Weather Forecast

Advertisements
Track Severe Weather on mobile